sensor_id;sensor_type;location;lat;lon;timestamp;P1;durP1;ratioP1;P2;durP2;ratioP2
20179;SDS011;10249;48.900;9.090;2022-08-01T00:01:35;14.93;;;14.33;;
20179;SDS011;10249;48.900;9.090;2022-08-01T00:04:02;15.00;;;14.40;;
20179;SDS011;10249;48.900;9.090;2022-08-01T00:06:29;15.10;;;14.50;;
20179;SDS011;10249;48.900;9.090;2022-08-01T00:08:56;15.13;;;14.53;;
20179;SDS011;10249;48.900;9.090;2022-08-01T00:11:24;15.67;;;15.00;;
20179;SDS011;10249;48.900;9.090;2022-08-01T00:13:52;14.97;;;14.37;;
20179;SDS011;10249;48.900;9.090;2022-08-01T00:16:19;14.90;;;14.30;;
20179;SDS011;10249;48.900;9.090;2022-08-01T00:18:47;14.90;;;14.30;;
20179;SDS011;10249;48.900;9.090;2022-08-01T00:21:14;15.07;;;14.47;;
20179;SDS011;10249;48.900;9.090;2022-08-01T00:23:41;14.93;;;14.33;;
20179;SDS011;10249;48.900;9.090;2022-08-01T00:26:10;15.03;;;14.43;;
20179;SDS011;10249;48.900;9.090;2022-08-01T00:28:37;15.30;;;14.70;;
20179;SDS011;10249;48.900;9.090;2022-08-01T00:31:05;14.90;;;14.30;;
20179;SDS011;10249;48.900;9.090;2022-08-01T00:33:32;14.97;;;14.37;;
20179;SDS011;10249;48.900;9.090;2022-08-01T00:35:59;15.40;;;14.70;;
20179;SDS011;10249;48.900;9.090;2022-08-01T00:38:27;15.47;;;14.77;;
20179;SDS011;10249;48.900;9.090;2022-08-01T00:40:54;14.70;;;14.10;;
20179;SDS011;10249;48.900;9.090;2022-08-01T00:43:21;14.90;;;14.30;;
20179;SDS011;10249;48.900;9.090;2022-08-01T00:45:48;14.70;;;14.10;;
20179;SDS011;10249;48.900;9.090;2022-08-01T00:48:16;15.43;;;14.83;;
20179;SDS011;10249;48.900;9.090;2022-08-01T00:50:43;14.63;;;14.03;;
20179;SDS011;10249;48.900;9.090;2022-08-01T00:53:11;14.77;;;14.17;;
20179;SDS011;10249;48.900;9.090;2022-08-01T00:55:38;14.53;;;13.93;;
20179;SDS011;10249;48.900;9.090;2022-08-01T00:58:05;14.67;;;14.07;;
20179;SDS011;10249;48.900;9.090;2022-08-01T01:00:33;14.63;;;14.03;;
20179;SDS011;10249;48.900;9.090;2022-08-01T01:03:00;15.17;;;14.57;;
20179;SDS011;10249;48.900;9.090;2022-08-01T01:05:29;14.60;;;14.00;;
20179;SDS011;10249;48.900;9.090;2022-08-01T01:07:59;14.67;;;14.07;;
20179;SDS011;10249;48.900;9.090;2022-08-01T01:10:30;14.60;;;14.00;;
20179;SDS011;10249;48.900;9.090;2022-08-01T01:12:59;14.67;;;14.07;;
20179;SDS011;10249;48.900;9.090;2022-08-01T01:15:29;14.60;;;14.00;;
20179;SDS011;10249;48.900;9.090;2022-08-01T01:18:02;14.50;;;13.90;;
20179;SDS011;10249;48.900;9.090;2022-08-01T01:20:32;14.37;;;13.77;;
20179;SDS011;10249;48.900;9.090;2022-08-01T01:23:10;14.40;;;13.80;;
20179;SDS011;10249;48.900;9.090;2022-08-01T01:25:51;14.30;;;13.70;;
20179;SDS011;10249;48.900;9.090;2022-08-01T01:28:33;14.30;;;13.70;;
20179;SDS011;10249;48.900;9.090;2022-08-01T01:31:08;14.33;;;13.73;;
20179;SDS011;10249;48.900;9.090;2022-08-01T01:33:37;14.43;;;13.83;;
20179;SDS011;10249;48.900;9.090;2022-08-01T01:36:08;14.67;;;14.07;;
20179;SDS011;10249;48.900;9.090;2022-08-01T01:38:36;13.80;;;13.30;;
20179;SDS011;10249;48.900;9.090;2022-08-01T01:41:07;13.83;;;13.33;;
20179;SDS011;10249;48.900;9.090;2022-08-01T01:43:35;14.33;;;13.73;;
20179;SDS011;10249;48.900;9.090;2022-08-01T01:46:04;13.80;;;13.30;;
20179;SDS011;10249;48.900;9.090;2022-08-01T01:48:33;13.60;;;13.10;;
20179;SDS011;10249;48.900;9.090;2022-08-01T01:51:01;14.07;;;13.47;;
20179;SDS011;10249;48.900;9.090;2022-08-01T01:53:29;13.97;;;13.40;;
20179;SDS011;10249;48.900;9.090;2022-08-01T01:55:59;13.50;;;13.00;;
20179;SDS011;10249;48.900;9.090;2022-08-01T01:58:28;13.90;;;13.40;;
20179;SDS011;10249;48.900;9.090;2022-08-01T02:00:57;13.90;;;13.40;;
20179;SDS011;10249;48.900;9.090;2022-08-01T02:03:26;13.50;;;13.00;;
20179;SDS011;10249;48.900;9.090;2022-08-01T02:05:56;13.50;;;13.00;;
20179;SDS011;10249;48.900;9.090;2022-08-01T02:08:23;13.47;;;12.97;;
20179;SDS011;10249;48.900;9.090;2022-08-01T02:10:52;13.40;;;12.90;;
20179;SDS011;10249;48.900;9.090;2022-08-01T02:13:38;13.27;;;12.77;;
20179;SDS011;10249;48.900;9.090;2022-08-01T02:16:07;13.10;;;12.60;;
20179;SDS011;10249;48.900;9.090;2022-08-01T02:18:36;12.90;;;12.40;;
20179;SDS011;10249;48.900;9.090;2022-08-01T02:21:05;13.07;;;12.57;;
20179;SDS011;10249;48.900;9.090;2022-08-01T02:23:37;13.10;;;12.60;;
20179;SDS011;10249;48.900;9.090;2022-08-01T02:26:07;12.77;;;12.27;;
20179;SDS011;10249;48.900;9.090;2022-08-01T02:28:36;12.53;;;12.03;;
20179;SDS011;10249;48.900;9.090;2022-08-01T02:31:10;12.40;;;11.90;;
20179;SDS011;10249;48.900;9.090;2022-08-01T02:33:40;12.60;;;12.10;;
20179;SDS011;10249;48.900;9.090;2022-08-01T02:36:11;12.60;;;12.10;;
20179;SDS011;10249;48.900;9.090;2022-08-01T02:38:40;12.60;;;12.10;;
20179;SDS011;10249;48.900;9.090;2022-08-01T02:41:10;12.60;;;12.10;;
20179;SDS011;10249;48.900;9.090;2022-08-01T02:43:40;12.83;;;12.33;;
20179;SDS011;10249;48.900;9.090;2022-08-01T02:46:12;12.50;;;12.00;;
20179;SDS011;10249;48.900;9.090;2022-08-01T02:48:44;12.47;;;11.97;;
20179;SDS011;10249;48.900;9.090;2022-08-01T02:51:14;12.60;;;12.10;;
20179;SDS011;10249;48.900;9.090;2022-08-01T02:53:43;12.90;;;12.40;;
20179;SDS011;10249;48.900;9.090;2022-08-01T02:56:12;12.13;;;11.73;;
20179;SDS011;10249;48.900;9.090;2022-08-01T02:58:40;12.57;;;12.07;;
20179;SDS011;10249;48.900;9.090;2022-08-01T03:01:08;12.50;;;12.00;;
20179;SDS011;10249;48.900;9.090;2022-08-01T03:03:37;12.43;;;11.93;;
20179;SDS011;10249;48.900;9.090;2022-08-01T03:06:04;12.40;;;11.90;;
20179;SDS011;10249;48.900;9.090;2022-08-01T03:08:33;12.33;;;11.83;;
20179;SDS011;10249;48.900;9.090;2022-08-01T03:11:02;11.97;;;11.57;;
20179;SDS011;10249;48.900;9.090;2022-08-01T03:13:29;13.10;;;12.60;;
20179;SDS011;10249;48.900;9.090;2022-08-01T03:15:58;11.90;;;11.50;;
20179;SDS011;10249;48.900;9.090;2022-08-01T03:18:26;11.70;;;11.30;;
20179;SDS011;10249;48.900;9.090;2022-08-01T03:20:54;11.80;;;11.40;;
20179;SDS011;10249;48.900;9.090;2022-08-01T03:23:25;11.33;;;10.93;;
20179;SDS011;10249;48.900;9.090;2022-08-01T03:25:54;11.37;;;10.97;;
20179;SDS011;10249;48.900;9.090;2022-08-01T03:28:23;11.80;;;11.40;;
20179;SDS011;10249;48.900;9.090;2022-08-01T03:30:51;11.50;;;11.10;;
20179;SDS011;10249;48.900;9.090;2022-08-01T03:33:19;11.53;;;11.13;;
20179;SDS011;10249;48.900;9.090;2022-08-01T03:35:47;11.53;;;11.13;;
20179;SDS011;10249;48.900;9.090;2022-08-01T03:38:19;11.40;;;10.97;;
20179;SDS011;10249;48.900;9.090;2022-08-01T03:40:49;11.07;;;10.67;;
20179;SDS011;10249;48.900;9.090;2022-08-01T03:43:22;11.30;;;10.90;;
20179;SDS011;10249;48.900;9.090;2022-08-01T03:45:56;11.20;;;10.80;;
20179;SDS011;10249;48.900;9.090;2022-08-01T03:48:28;10.93;;;10.53;;
20179;SDS011;10249;48.900;9.090;2022-08-01T03:50:56;10.90;;;10.50;;
20179;SDS011;10249;48.900;9.090;2022-08-01T03:53:26;11.20;;;10.80;;
20179;SDS011;10249;48.900;9.090;2022-08-01T03:55:56;11.10;;;10.70;;
20179;SDS011;10249;48.900;9.090;2022-08-01T03:58:27;11.00;;;10.60;;
20179;SDS011;10249;48.900;9.090;2022-08-01T04:00:55;11.03;;;10.63;;
20179;SDS011;10249;48.900;9.090;2022-08-01T04:03:22;11.00;;;10.60;;
20179;SDS011;10249;48.900;9.090;2022-08-01T04:05:49;11.40;;;11.00;;
20179;SDS011;10249;48.900;9.090;2022-08-01T04:08:16;11.40;;;11.00;;
20179;SDS011;10249;48.900;9.090;2022-08-01T04:10:43;11.70;;;11.30;;
20179;SDS011;10249;48.900;9.090;2022-08-01T04:13:10;11.83;;;11.43;;
20179;SDS011;10249;48.900;9.090;2022-08-01T04:15:39;11.60;;;11.20;;
20179;SDS011;10249;48.900;9.090;2022-08-01T04:18:05;11.70;;;11.30;;
20179;SDS011;10249;48.900;9.090;2022-08-01T04:20:32;12.00;;;11.60;;
20179;SDS011;10249;48.900;9.090;2022-08-01T04:22:59;12.63;;;12.13;;
20179;SDS011;10249;48.900;9.090;2022-08-01T04:25:26;12.57;;;12.07;;
20179;SDS011;10249;48.900;9.090;2022-08-01T04:27:58;11.63;;;11.23;;
20179;SDS011;10249;48.900;9.090;2022-08-01T04:30:31;11.60;;;11.20;;
20179;SDS011;10249;48.900;9.090;2022-08-01T04:33:04;11.87;;;11.43;;
20179;SDS011;10249;48.900;9.090;2022-08-01T04:35:33;12.50;;;12.00;;
20179;SDS011;10249;48.900;9.090;2022-08-01T04:38:02;12.20;;;11.70;;
20179;SDS011;10249;48.900;9.090;2022-08-01T04:40:30;11.70;;;11.30;;
20179;SDS011;10249;48.900;9.090;2022-08-01T04:42:58;12.20;;;11.80;;
20179;SDS011;10249;48.900;9.090;2022-08-01T04:45:25;12.40;;;11.90;;
20179;SDS011;10249;48.900;9.090;2022-08-01T04:47:52;11.60;;;11.20;;
20179;SDS011;10249;48.900;9.090;2022-08-01T04:50:21;11.80;;;11.40;;
20179;SDS011;10249;48.900;9.090;2022-08-01T04:52:48;11.90;;;11.50;;
20179;SDS011;10249;48.900;9.090;2022-08-01T04:55:16;11.90;;;11.50;;
20179;SDS011;10249;48.900;9.090;2022-08-01T04:57:43;11.83;;;11.43;;
20179;SDS011;10249;48.900;9.090;2022-08-01T05:00:12;11.97;;;11.57;;
20179;SDS011;10249;48.900;9.090;2022-08-01T05:02:41;11.90;;;11.50;;
20179;SDS011;10249;48.900;9.090;2022-08-01T05:05:08;11.70;;;11.30;;
20179;SDS011;10249;48.900;9.090;2022-08-01T05:07:36;11.60;;;11.20;;
20179;SDS011;10249;48.900;9.090;2022-08-01T05:10:03;12.30;;;11.80;;
20179;SDS011;10249;48.900;9.090;2022-08-01T05:12:31;13.47;;;12.80;;
20179;SDS011;10249;48.900;9.090;2022-08-01T05:14:57;13.73;;;13.13;;
20179;SDS011;10249;48.900;9.090;2022-08-01T05:17:24;11.67;;;11.27;;
20179;SDS011;10249;48.900;9.090;2022-08-01T05:19:51;13.00;;;12.50;;
20179;SDS011;10249;48.900;9.090;2022-08-01T05:22:18;12.47;;;11.97;;
20179;SDS011;10249;48.900;9.090;2022-08-01T05:24:46;12.47;;;11.97;;
20179;SDS011;10249;48.900;9.090;2022-08-01T05:27:13;13.50;;;12.80;;
20179;SDS011;10249;48.900;9.090;2022-08-01T05:29:39;12.37;;;11.87;;
20179;SDS011;10249;48.900;9.090;2022-08-01T05:32:06;12.80;;;12.30;;
20179;SDS011;10249;48.900;9.090;2022-08-01T05:34:34;12.90;;;12.40;;
20179;SDS011;10249;48.900;9.090;2022-08-01T05:37:01;12.87;;;12.37;;
20179;SDS011;10249;48.900;9.090;2022-08-01T05:39:28;12.83;;;12.33;;
20179;SDS011;10249;48.900;9.090;2022-08-01T05:41:56;13.50;;;13.00;;
20179;SDS011;10249;48.900;9.090;2022-08-01T05:44:23;13.00;;;12.50;;
20179;SDS011;10249;48.900;9.090;2022-08-01T05:46:50;13.20;;;12.70;;
20179;SDS011;10249;48.900;9.090;2022-08-01T05:49:16;13.20;;;12.70;;
20179;SDS011;10249;48.900;9.090;2022-08-01T05:51:43;13.37;;;12.87;;
20179;SDS011;10249;48.900;9.090;2022-08-01T05:54:10;13.87;;;13.17;;
20179;SDS011;10249;48.900;9.090;2022-08-01T05:56:36;13.00;;;12.50;;
20179;SDS011;10249;48.900;9.090;2022-08-01T05:59:04;13.30;;;12.80;;
20179;SDS011;10249;48.900;9.090;2022-08-01T06:01:31;14.23;;;13.63;;
20179;SDS011;10249;48.900;9.090;2022-08-01T06:03:58;14.80;;;14.00;;
20179;SDS011;10249;48.900;9.090;2022-08-01T06:06:25;13.90;;;13.30;;
20179;SDS011;10249;48.900;9.090;2022-08-01T06:08:52;15.23;;;14.00;;
20179;SDS011;10249;48.900;9.090;2022-08-01T06:11:18;13.47;;;12.97;;
20179;SDS011;10249;48.900;9.090;2022-08-01T06:13:45;14.23;;;13.63;;
20179;SDS011;10249;48.900;9.090;2022-08-01T06:16:13;14.67;;;14.07;;
20179;SDS011;10249;48.900;9.090;2022-08-01T06:18:40;15.03;;;14.43;;
20179;SDS011;10249;48.900;9.090;2022-08-01T06:21:06;13.80;;;13.27;;
20179;SDS011;10249;48.900;9.090;2022-08-01T06:23:33;13.30;;;12.80;;
20179;SDS011;10249;48.900;9.090;2022-08-01T06:26:00;14.50;;;13.70;;
20179;SDS011;10249;48.900;9.090;2022-08-01T06:28:26;14.83;;;14.03;;
20179;SDS011;10249;48.900;9.090;2022-08-01T06:30:54;14.20;;;13.60;;
20179;SDS011;10249;48.900;9.090;2022-08-01T06:33:22;14.20;;;13.50;;
20179;SDS011;10249;48.900;9.090;2022-08-01T06:35:48;14.30;;;13.70;;
20179;SDS011;10249;48.900;9.090;2022-08-01T06:38:15;14.23;;;13.63;;
20179;SDS011;10249;48.900;9.090;2022-08-01T06:40:42;13.87;;;13.37;;
20179;SDS011;10249;48.900;9.090;2022-08-01T06:43:08;13.60;;;13.10;;
20179;SDS011;10249;48.900;9.090;2022-08-01T06:45:36;14.37;;;13.77;;
20179;SDS011;10249;48.900;9.090;2022-08-01T06:48:03;15.00;;;14.27;;
20179;SDS011;10249;48.900;9.090;2022-08-01T06:50:32;14.93;;;14.17;;
20179;SDS011;10249;48.900;9.090;2022-08-01T06:53:00;13.50;;;13.00;;
20179;SDS011;10249;48.900;9.090;2022-08-01T06:55:27;14.10;;;13.50;;
20179;SDS011;10249;48.900;9.090;2022-08-01T06:57:54;14.20;;;13.60;;
20179;SDS011;10249;48.900;9.090;2022-08-01T07:00:21;14.10;;;13.50;;
20179;SDS011;10249;48.900;9.090;2022-08-01T07:02:49;14.00;;;13.40;;
20179;SDS011;10249;48.900;9.090;2022-08-01T07:05:15;14.17;;;13.57;;
20179;SDS011;10249;48.900;9.090;2022-08-01T07:07:44;15.13;;;14.33;;
20179;SDS011;10249;48.900;9.090;2022-08-01T07:10:11;15.10;;;14.23;;
20179;SDS011;10249;48.900;9.090;2022-08-01T07:12:37;14.33;;;13.73;;
20179;SDS011;10249;48.900;9.090;2022-08-01T07:15:06;14.47;;;13.87;;
20179;SDS011;10249;48.900;9.090;2022-08-01T07:17:35;13.90;;;13.30;;
20179;SDS011;10249;48.900;9.090;2022-08-01T07:20:04;14.73;;;13.93;;
20179;SDS011;10249;48.900;9.090;2022-08-01T07:22:32;14.00;;;13.40;;
20179;SDS011;10249;48.900;9.090;2022-08-01T07:25:00;14.53;;;13.83;;
20179;SDS011;10249;48.900;9.090;2022-08-01T07:27:26;14.83;;;14.03;;
20179;SDS011;10249;48.900;9.090;2022-08-01T07:29:53;14.73;;;14.03;;
20179;SDS011;10249;48.900;9.090;2022-08-01T07:32:20;14.13;;;13.53;;
20179;SDS011;10249;48.900;9.090;2022-08-01T07:34:46;14.60;;;13.90;;
20179;SDS011;10249;48.900;9.090;2022-08-01T07:37:13;13.73;;;13.13;;
20179;SDS011;10249;48.900;9.090;2022-08-01T07:39:40;14.53;;;13.83;;
20179;SDS011;10249;48.900;9.090;2022-08-01T07:42:08;14.30;;;13.70;;
20179;SDS011;10249;48.900;9.090;2022-08-01T07:44:35;15.10;;;14.40;;
20179;SDS011;10249;48.900;9.090;2022-08-01T07:47:02;14.17;;;13.57;;
20179;SDS011;10249;48.900;9.090;2022-08-01T07:49:29;14.50;;;13.80;;
20179;SDS011;10249;48.900;9.090;2022-08-01T07:51:56;14.95;;;14.15;;
20179;SDS011;10249;48.900;9.090;2022-08-01T07:54:23;14.80;;;14.20;;
20179;SDS011;10249;48.900;9.090;2022-08-01T07:56:52;15.57;;;14.77;;
20179;SDS011;10249;48.900;9.090;2022-08-01T07:59:20;15.23;;;14.43;;
20179;SDS011;10249;48.900;9.090;2022-08-01T08:01:48;14.47;;;13.80;;
20179;SDS011;10249;48.900;9.090;2022-08-01T08:04:15;14.60;;;13.93;;
20179;SDS011;10249;48.900;9.090;2022-08-01T08:06:42;14.73;;;14.00;;
20179;SDS011;10249;48.900;9.090;2022-08-01T08:09:09;14.37;;;13.77;;
20179;SDS011;10249;48.900;9.090;2022-08-01T08:11:37;15.27;;;14.37;;
20179;SDS011;10249;48.900;9.090;2022-08-01T08:14:03;15.30;;;14.60;;
20179;SDS011;10249;48.900;9.090;2022-08-01T08:16:31;14.93;;;14.23;;
20179;SDS011;10249;48.900;9.090;2022-08-01T08:18:58;15.00;;;14.30;;
20179;SDS011;10249;48.900;9.090;2022-08-01T08:21:25;15.03;;;14.33;;
20179;SDS011;10249;48.900;9.090;2022-08-01T08:23:52;15.27;;;14.43;;
20179;SDS011;10249;48.900;9.090;2022-08-01T08:26:36;14.40;;;13.80;;
20179;SDS011;10249;48.900;9.090;2022-08-01T08:29:03;15.70;;;14.80;;
20179;SDS011;10249;48.900;9.090;2022-08-01T08:31:31;15.40;;;14.70;;
20179;SDS011;10249;48.900;9.090;2022-08-01T08:33:58;14.97;;;14.17;;
20179;SDS011;10249;48.900;9.090;2022-08-01T08:36:25;14.77;;;14.07;;
20179;SDS011;10249;48.900;9.090;2022-08-01T08:38:52;16.20;;;15.20;;
20179;SDS011;10249;48.900;9.090;2022-08-01T08:41:19;15.37;;;14.67;;
20179;SDS011;10249;48.900;9.090;2022-08-01T08:43:46;15.40;;;14.60;;
20179;SDS011;10249;48.900;9.090;2022-08-01T08:46:13;14.70;;;14.00;;
20179;SDS011;10249;48.900;9.090;2022-08-01T08:48:42;15.67;;;14.87;;
20179;SDS011;10249;48.900;9.090;2022-08-01T08:51:09;15.97;;;14.97;;
20179;SDS011;10249;48.900;9.090;2022-08-01T08:53:37;16.30;;;15.50;;
20179;SDS011;10249;48.900;9.090;2022-08-01T08:56:08;16.00;;;15.10;;
20179;SDS011;10249;48.900;9.090;2022-08-01T08:58:37;16.40;;;15.40;;
20179;SDS011;10249;48.900;9.090;2022-08-01T09:01:04;14.97;;;14.27;;
20179;SDS011;10249;48.900;9.090;2022-08-01T09:03:32;16.53;;;15.63;;
20179;SDS011;10249;48.900;9.090;2022-08-01T09:06:00;15.87;;;14.87;;
20179;SDS011;10249;48.900;9.090;2022-08-01T09:08:27;16.77;;;15.77;;
20179;SDS011;10249;48.900;9.090;2022-08-01T09:10:54;15.13;;;14.33;;
20179;SDS011;10249;48.900;9.090;2022-08-01T09:13:21;15.43;;;14.73;;
20179;SDS011;10249;48.900;9.090;2022-08-01T09:15:49;17.10;;;16.00;;
20179;SDS011;10249;48.900;9.090;2022-08-01T09:18:31;16.23;;;15.33;;
20179;SDS011;10249;48.900;9.090;2022-08-01T09:21:11;16.58;;;15.68;;
20179;SDS011;10249;48.900;9.090;2022-08-01T09:23:41;15.40;;;14.70;;
20179;SDS011;10249;48.900;9.090;2022-08-01T09:26:10;16.90;;;16.00;;
20179;SDS011;10249;48.900;9.090;2022-08-01T09:28:39;17.05;;;16.15;;
20179;SDS011;10249;48.900;9.090;2022-08-01T09:31:07;17.23;;;16.37;;
20179;SDS011;10249;48.900;9.090;2022-08-01T09:33:48;16.55;;;15.75;;
20179;SDS011;10249;48.900;9.090;2022-08-01T09:36:21;17.35;;;16.45;;
20179;SDS011;10249;48.900;9.090;2022-08-01T09:38:49;17.67;;;16.60;;
20179;SDS011;10249;48.900;9.090;2022-08-01T09:41:16;16.25;;;15.45;;
20179;SDS011;10249;48.900;9.090;2022-08-01T09:43:47;15.38;;;14.68;;
20179;SDS011;10249;48.900;9.090;2022-08-01T09:46:16;15.90;;;15.20;;
20179;SDS011;10249;48.900;9.090;2022-08-01T09:48:54;16.65;;;15.63;;
20179;SDS011;10249;48.900;9.090;2022-08-01T09:51:30;17.50;;;16.60;;
20179;SDS011;10249;48.900;9.090;2022-08-01T09:53:58;16.20;;;15.40;;
20179;SDS011;10249;48.900;9.090;2022-08-01T09:56:26;16.13;;;15.32;;
20179;SDS011;10249;48.900;9.090;2022-08-01T09:59:01;16.05;;;15.15;;
20179;SDS011;10249;48.900;9.090;2022-08-01T10:01:28;17.02;;;16.13;;
20179;SDS011;10249;48.900;9.090;2022-08-01T10:04:08;17.08;;;16.17;;
20179;SDS011;10249;48.900;9.090;2022-08-01T10:06:37;16.20;;;15.40;;
20179;SDS011;10249;48.900;9.090;2022-08-01T10:09:04;16.45;;;15.55;;
20179;SDS011;10249;48.900;9.090;2022-08-01T10:11:31;17.05;;;16.05;;
20179;SDS011;10249;48.900;9.090;2022-08-01T10:13:58;16.63;;;15.73;;
20179;SDS011;10249;48.900;9.090;2022-08-01T10:16:27;16.60;;;15.70;;
20179;SDS011;10249;48.900;9.090;2022-08-01T10:18:54;16.23;;;15.40;;
20179;SDS011;10249;48.900;9.090;2022-08-01T10:21:22;17.38;;;16.48;;
20179;SDS011;10249;48.900;9.090;2022-08-01T10:23:53;16.90;;;16.00;;
20179;SDS011;10249;48.900;9.090;2022-08-01T10:26:21;17.15;;;16.23;;
20179;SDS011;10249;48.900;9.090;2022-08-01T10:28:51;16.25;;;15.45;;
20179;SDS011;10249;48.900;9.090;2022-08-01T10:31:20;16.98;;;16.08;;
20179;SDS011;10249;48.900;9.090;2022-08-01T10:33:47;18.00;;;16.85;;
20179;SDS011;10249;48.900;9.090;2022-08-01T10:36:15;16.13;;;15.35;;
20179;SDS011;10249;48.900;9.090;2022-08-01T10:38:44;16.85;;;15.95;;
20179;SDS011;10249;48.900;9.090;2022-08-01T10:41:13;17.23;;;16.38;;
20179;SDS011;10249;48.900;9.090;2022-08-01T10:43:41;17.10;;;16.30;;
20179;SDS011;10249;48.900;9.090;2022-08-01T10:46:08;17.20;;;16.40;;
20179;SDS011;10249;48.900;9.090;2022-08-01T10:48:39;17.38;;;16.48;;
20179;SDS011;10249;48.900;9.090;2022-08-01T10:51:09;16.95;;;16.15;;
20179;SDS011;10249;48.900;9.090;2022-08-01T10:53:35;17.67;;;16.77;;
20179;SDS011;10249;48.900;9.090;2022-08-01T10:56:12;16.65;;;15.82;;
20179;SDS011;10249;48.900;9.090;2022-08-01T10:58:41;17.70;;;16.80;;
20179;SDS011;10249;48.900;9.090;2022-08-01T11:01:15;17.38;;;16.42;;
20179;SDS011;10249;48.900;9.090;2022-08-01T11:03:44;17.23;;;16.33;;
20179;SDS011;10249;48.900;9.090;2022-08-01T11:06:23;15.50;;;14.80;;
20179;SDS011;10249;48.900;9.090;2022-08-01T11:08:51;17.10;;;16.13;;
20179;SDS011;10249;48.900;9.090;2022-08-01T11:11:21;16.63;;;15.80;;
20179;SDS011;10249;48.900;9.090;2022-08-01T11:14:00;17.25;;;16.35;;
20179;SDS011;10249;48.900;9.090;2022-08-01T11:16:31;16.83;;;16.02;;
20179;SDS011;10249;48.900;9.090;2022-08-01T11:18:59;16.60;;;15.73;;
20179;SDS011;10249;48.900;9.090;2022-08-01T11:27:24;17.15;;;16.10;;
20179;SDS011;10249;48.900;9.090;2022-08-01T11:32:51;16.23;;;15.43;;
20179;SDS011;10249;48.900;9.090;2022-08-01T11:35:19;16.95;;;15.85;;
20179;SDS011;10249;48.900;9.090;2022-08-01T11:37:48;16.75;;;15.85;;
20179;SDS011;10249;48.900;9.090;2022-08-01T11:40:18;16.67;;;15.77;;
20179;SDS011;10249;48.900;9.090;2022-08-01T11:42:47;16.48;;;15.68;;
20179;SDS011;10249;48.900;9.090;2022-08-01T11:45:14;16.45;;;15.65;;
20179;SDS011;10249;48.900;9.090;2022-08-01T11:47:42;16.50;;;15.68;;
20179;SDS011;10249;48.900;9.090;2022-08-01T11:52:59;17.83;;;16.92;;
20179;SDS011;10249;48.900;9.090;2022-08-01T11:55:26;16.92;;;15.93;;
20179;SDS011;10249;48.900;9.090;2022-08-01T11:58:04;16.90;;;16.10;;
20179;SDS011;10249;48.900;9.090;2022-08-01T12:00:32;16.50;;;15.70;;
20179;SDS011;10249;48.900;9.090;2022-08-01T12:03:00;15.73;;;14.95;;
20179;SDS011;10249;48.900;9.090;2022-08-01T12:05:28;17.45;;;16.42;;
20179;SDS011;10249;48.900;9.090;2022-08-01T12:07:56;17.23;;;16.23;;
20179;SDS011;10249;48.900;9.090;2022-08-01T12:10:24;17.95;;;16.75;;
20179;SDS011;10249;48.900;9.090;2022-08-01T12:12:52;15.88;;;15.13;;
20179;SDS011;10249;48.900;9.090;2022-08-01T12:15:23;15.98;;;15.25;;
20179;SDS011;10249;48.900;9.090;2022-08-01T12:17:51;17.27;;;16.38;;
20179;SDS011;10249;48.900;9.090;2022-08-01T12:20:23;17.25;;;16.35;;
20179;SDS011;10249;48.900;9.090;2022-08-01T12:22:52;16.98;;;16.08;;
20179;SDS011;10249;48.900;9.090;2022-08-01T12:25:19;16.67;;;15.77;;
20179;SDS011;10249;48.900;9.090;2022-08-01T12:27:46;16.40;;;15.60;;
20179;SDS011;10249;48.900;9.090;2022-08-01T12:30:14;16.95;;;16.05;;
20179;SDS011;10249;48.900;9.090;2022-08-01T12:32:44;17.20;;;16.23;;
20179;SDS011;10249;48.900;9.090;2022-08-01T12:35:13;17.30;;;16.40;;
20179;SDS011;10249;48.900;9.090;2022-08-01T12:37:41;16.95;;;16.05;;
20179;SDS011;10249;48.900;9.090;2022-08-01T12:40:10;16.92;;;16.08;;
20179;SDS011;10249;48.900;9.090;2022-08-01T12:42:42;17.25;;;16.35;;
20179;SDS011;10249;48.900;9.090;2022-08-01T12:45:11;16.88;;;16.00;;
20179;SDS011;10249;48.900;9.090;2022-08-01T12:47:39;16.67;;;15.85;;
20179;SDS011;10249;48.900;9.090;2022-08-01T12:50:11;16.30;;;15.50;;
20179;SDS011;10249;48.900;9.090;2022-08-01T12:52:39;16.30;;;15.50;;
20179;SDS011;10249;48.900;9.090;2022-08-01T12:55:07;17.10;;;16.30;;
20179;SDS011;10249;48.900;9.090;2022-08-01T12:57:36;16.55;;;15.75;;
20179;SDS011;10249;48.900;9.090;2022-08-01T13:00:05;17.20;;;16.10;;
20179;SDS011;10249;48.900;9.090;2022-08-01T13:02:37;16.70;;;15.90;;
20179;SDS011;10249;48.900;9.090;2022-08-01T13:05:05;17.15;;;16.25;;
20179;SDS011;10249;48.900;9.090;2022-08-01T13:07:38;17.50;;;16.50;;
20179;SDS011;10249;48.900;9.090;2022-08-01T13:10:08;17.02;;;16.08;;
20179;SDS011;10249;48.900;9.090;2022-08-01T13:12:36;16.35;;;15.45;;
20179;SDS011;10249;48.900;9.090;2022-08-01T13:15:20;16.98;;;16.17;;
20179;SDS011;10249;48.900;9.090;2022-08-01T13:17:52;16.30;;;15.45;;
20179;SDS011;10249;48.900;9.090;2022-08-01T13:20:26;16.48;;;15.60;;
20179;SDS011;10249;48.900;9.090;2022-08-01T13:25:46;16.67;;;15.88;;
20179;SDS011;10249;48.900;9.090;2022-08-01T13:28:18;17.05;;;16.25;;
20179;SDS011;10249;48.900;9.090;2022-08-01T13:30:56;17.58;;;16.60;;
20179;SDS011;10249;48.900;9.090;2022-08-01T13:33:24;17.92;;;16.95;;
20179;SDS011;10249;48.900;9.090;2022-08-01T13:35:52;17.45;;;16.55;;
20179;SDS011;10249;48.900;9.090;2022-08-01T13:38:21;17.77;;;16.88;;
20179;SDS011;10249;48.900;9.090;2022-08-01T13:41:08;15.95;;;15.25;;
20179;SDS011;10249;48.900;9.090;2022-08-01T13:43:35;15.38;;;14.68;;
20179;SDS011;10249;48.900;9.090;2022-08-01T13:46:02;16.35;;;15.45;;
20179;SDS011;10249;48.900;9.090;2022-08-01T13:48:30;16.60;;;15.80;;
20179;SDS011;10249;48.900;9.090;2022-08-01T13:50:57;16.33;;;15.43;;
20179;SDS011;10249;48.900;9.090;2022-08-01T13:53:26;16.70;;;15.80;;
20179;SDS011;10249;48.900;9.090;2022-08-01T13:55:53;15.93;;;15.23;;
20179;SDS011;10249;48.900;9.090;2022-08-01T13:58:20;15.93;;;15.15;;
20179;SDS011;10249;48.900;9.090;2022-08-01T14:00:47;16.77;;;15.88;;
20179;SDS011;10249;48.900;9.090;2022-08-01T14:03:14;16.55;;;15.75;;
20179;SDS011;10249;48.900;9.090;2022-08-01T14:05:41;17.02;;;16.15;;
20179;SDS011;10249;48.900;9.090;2022-08-01T14:08:08;16.17;;;15.38;;
20179;SDS011;10249;48.900;9.090;2022-08-01T14:10:37;16.88;;;15.95;;
20179;SDS011;10249;48.900;9.090;2022-08-01T14:13:03;17.13;;;16.23;;
20179;SDS011;10249;48.900;9.090;2022-08-01T14:15:30;16.60;;;15.80;;
20179;SDS011;10249;48.900;9.090;2022-08-01T14:17:57;16.27;;;15.48;;
20179;SDS011;10249;48.900;9.090;2022-08-01T14:20:24;16.60;;;15.80;;
20179;SDS011;10249;48.900;9.090;2022-08-01T14:22:51;16.23;;;15.43;;
20179;SDS011;10249;48.900;9.090;2022-08-01T14:25:18;16.63;;;15.75;;
20179;SDS011;10249;48.900;9.090;2022-08-01T14:27:46;16.67;;;15.82;;
20179;SDS011;10249;48.900;9.090;2022-08-01T14:30:13;16.90;;;16.00;;
20179;SDS011;10249;48.900;9.090;2022-08-01T14:32:40;16.88;;;15.90;;
20179;SDS011;10249;48.900;9.090;2022-08-01T14:35:07;17.52;;;16.73;;
20179;SDS011;10249;48.900;9.090;2022-08-01T14:37:34;16.60;;;15.90;;
20179;SDS011;10249;48.900;9.090;2022-08-01T14:40:00;16.60;;;15.80;;
20179;SDS011;10249;48.900;9.090;2022-08-01T14:42:32;17.55;;;16.65;;
20179;SDS011;10249;48.900;9.090;2022-08-01T14:45:00;17.65;;;16.75;;